sensor_id;sensor_type;location;lat;lon;timestamp;P1;durP1;ratioP1;P2;durP2;ratioP2
9767;SDS011;4923;52.520;13.494;2022-08-19T00:00:44;10.17;;;9.33;;
9767;SDS011;4923;52.520;13.494;2022-08-19T00:03:31;10.13;;;9.33;;
9767;SDS011;4923;52.520;13.494;2022-08-19T00:06:18;10.50;;;9.70;;
9767;SDS011;4923;52.520;13.494;2022-08-19T00:09:05;12.43;;;9.50;;
9767;SDS011;4923;52.520;13.494;2022-08-19T00:11:55;11.90;;;10.83;;
9767;SDS011;4923;52.520;13.494;2022-08-19T00:14:45;11.60;;;10.40;;
9767;SDS011;4923;52.520;13.494;2022-08-19T00:17:32;12.70;;;10.20;;
9767;SDS011;4923;52.520;13.494;2022-08-19T00:20:20;10.43;;;9.53;;
9767;SDS011;4923;52.520;13.494;2022-08-19T00:23:08;10.40;;;9.40;;
9767;SDS011;4923;52.520;13.494;2022-08-19T00:25:55;10.90;;;9.73;;
9767;SDS011;4923;52.520;13.494;2022-08-19T00:28:42;10.53;;;9.73;;
9767;SDS011;4923;52.520;13.494;2022-08-19T00:31:30;12.43;;;10.73;;
9767;SDS011;4923;52.520;13.494;2022-08-19T00:34:17;10.83;;;10.03;;
9767;SDS011;4923;52.520;13.494;2022-08-19T00:37:04;14.80;;;10.37;;
9767;SDS011;4923;52.520;13.494;2022-08-19T00:39:52;11.30;;;10.40;;
9767;SDS011;4923;52.520;13.494;2022-08-19T00:42:41;11.97;;;10.90;;
9767;SDS011;4923;52.520;13.494;2022-08-19T00:45:28;12.63;;;11.33;;
9767;SDS011;4923;52.520;13.494;2022-08-19T00:48:19;11.33;;;10.43;;
9767;SDS011;4923;52.520;13.494;2022-08-19T00:51:07;12.50;;;11.30;;
9767;SDS011;4923;52.520;13.494;2022-08-19T00:53:55;11.97;;;10.93;;
9767;SDS011;4923;52.520;13.494;2022-08-19T00:56:43;12.50;;;11.30;;
9767;SDS011;4923;52.520;13.494;2022-08-19T00:59:31;15.73;;;12.23;;
9767;SDS011;4923;52.520;13.494;2022-08-19T01:02:21;13.27;;;12.07;;
9767;SDS011;4923;52.520;13.494;2022-08-19T01:05:10;13.87;;;12.50;;
9767;SDS011;4923;52.520;13.494;2022-08-19T01:08:00;12.80;;;11.70;;
9767;SDS011;4923;52.520;13.494;2022-08-19T01:10:50;13.90;;;12.70;;
9767;SDS011;4923;52.520;13.494;2022-08-19T01:13:40;14.00;;;12.60;;
9767;SDS011;4923;52.520;13.494;2022-08-19T01:16:27;14.00;;;12.20;;
9767;SDS011;4923;52.520;13.494;2022-08-19T01:19:17;13.70;;;12.40;;
9767;SDS011;4923;52.520;13.494;2022-08-19T01:22:12;14.90;;;13.50;;
9767;SDS011;4923;52.520;13.494;2022-08-19T01:25:06;14.27;;;12.83;;
9767;SDS011;4923;52.520;13.494;2022-08-19T01:27:53;13.50;;;11.60;;
9767;SDS011;4923;52.520;13.494;2022-08-19T01:30:41;15.33;;;12.90;;
9767;SDS011;4923;52.520;13.494;2022-08-19T01:33:29;15.13;;;13.63;;
9767;SDS011;4923;52.520;13.494;2022-08-19T01:36:21;14.63;;;12.60;;
9767;SDS011;4923;52.520;13.494;2022-08-19T01:39:11;14.97;;;13.57;;
9767;SDS011;4923;52.520;13.494;2022-08-19T01:42:03;12.93;;;11.73;;
9767;SDS011;4923;52.520;13.494;2022-08-19T01:44:51;15.43;;;14.00;;
9767;SDS011;4923;52.520;13.494;2022-08-19T01:47:38;14.33;;;13.03;;
9767;SDS011;4923;52.520;13.494;2022-08-19T01:50:25;14.50;;;13.20;;
9767;SDS011;4923;52.520;13.494;2022-08-19T01:53:12;26.53;;;12.80;;
9767;SDS011;4923;52.520;13.494;2022-08-19T01:55:59;16.70;;;10.97;;
9767;SDS011;4923;52.520;13.494;2022-08-19T01:58:50;16.17;;;12.10;;
9767;SDS011;4923;52.520;13.494;2022-08-19T02:01:39;18.23;;;13.10;;
9767;SDS011;4923;52.520;13.494;2022-08-19T02:04:27;13.33;;;10.43;;
9767;SDS011;4923;52.520;13.494;2022-08-19T02:07:14;13.10;;;11.90;;
9767;SDS011;4923;52.520;13.494;2022-08-19T02:10:01;13.77;;;12.23;;
9767;SDS011;4923;52.520;13.494;2022-08-19T02:12:49;16.07;;;14.13;;
9767;SDS011;4923;52.520;13.494;2022-08-19T02:15:38;17.43;;;15.00;;
9767;SDS011;4923;52.520;13.494;2022-08-19T02:18:25;15.10;;;13.80;;
9767;SDS011;4923;52.520;13.494;2022-08-19T02:21:12;14.00;;;12.60;;
9767;SDS011;4923;52.520;13.494;2022-08-19T02:24:01;21.30;;;14.30;;
9767;SDS011;4923;52.520;13.494;2022-08-19T02:26:48;14.77;;;13.37;;
9767;SDS011;4923;52.520;13.494;2022-08-19T02:29:35;14.33;;;12.90;;
9767;SDS011;4923;52.520;13.494;2022-08-19T02:32:23;15.37;;;13.87;;
9767;SDS011;4923;52.520;13.494;2022-08-19T02:35:10;19.03;;;14.27;;
9767;SDS011;4923;52.520;13.494;2022-08-19T02:37:58;15.00;;;13.10;;
9767;SDS011;4923;52.520;13.494;2022-08-19T02:41:04;15.17;;;13.67;;
9767;SDS011;4923;52.520;13.494;2022-08-19T02:43:53;15.53;;;14.03;;
9767;SDS011;4923;52.520;13.494;2022-08-19T02:46:40;18.60;;;14.73;;
9767;SDS011;4923;52.520;13.494;2022-08-19T02:49:30;17.20;;;15.13;;
9767;SDS011;4923;52.520;13.494;2022-08-19T02:52:17;17.07;;;15.23;;
9767;SDS011;4923;52.520;13.494;2022-08-19T02:55:05;15.60;;;14.00;;
9767;SDS011;4923;52.520;13.494;2022-08-19T02:57:52;16.37;;;14.77;;
9767;SDS011;4923;52.520;13.494;2022-08-19T03:00:43;14.07;;;12.70;;
9767;SDS011;4923;52.520;13.494;2022-08-19T03:03:31;16.17;;;14.23;;
9767;SDS011;4923;52.520;13.494;2022-08-19T03:06:19;19.03;;;14.87;;
9767;SDS011;4923;52.520;13.494;2022-08-19T03:09:07;17.47;;;14.20;;
9767;SDS011;4923;52.520;13.494;2022-08-19T03:11:54;16.60;;;13.07;;
9767;SDS011;4923;52.520;13.494;2022-08-19T03:14:41;15.27;;;13.87;;
9767;SDS011;4923;52.520;13.494;2022-08-19T03:17:28;14.60;;;13.17;;
9767;SDS011;4923;52.520;13.494;2022-08-19T03:20:14;15.40;;;13.80;;
9767;SDS011;4923;52.520;13.494;2022-08-19T03:23:03;15.93;;;13.90;;
9767;SDS011;4923;52.520;13.494;2022-08-19T03:25:50;15.03;;;13.47;;
9767;SDS011;4923;52.520;13.494;2022-08-19T03:28:38;14.03;;;12.73;;
9767;SDS011;4923;52.520;13.494;2022-08-19T03:31:26;15.27;;;13.80;;
9767;SDS011;4923;52.520;13.494;2022-08-19T03:34:14;15.13;;;13.67;;
9767;SDS011;4923;52.520;13.494;2022-08-19T03:37:04;14.13;;;12.83;;
9767;SDS011;4923;52.520;13.494;2022-08-19T03:39:53;15.87;;;14.27;;
9767;SDS011;4923;52.520;13.494;2022-08-19T03:42:40;15.20;;;13.63;;
9767;SDS011;4923;52.520;13.494;2022-08-19T03:45:27;13.20;;;12.07;;
9767;SDS011;4923;52.520;13.494;2022-08-19T03:48:14;14.37;;;12.97;;
9767;SDS011;4923;52.520;13.494;2022-08-19T03:51:02;14.40;;;12.90;;
9767;SDS011;4923;52.520;13.494;2022-08-19T03:53:49;14.00;;;12.80;;
9767;SDS011;4923;52.520;13.494;2022-08-19T03:56:38;14.57;;;13.07;;
9767;SDS011;4923;52.520;13.494;2022-08-19T03:59:27;16.57;;;13.23;;
9767;SDS011;4923;52.520;13.494;2022-08-19T04:02:16;13.90;;;12.70;;
9767;SDS011;4923;52.520;13.494;2022-08-19T04:05:03;15.10;;;13.43;;
9767;SDS011;4923;52.520;13.494;2022-08-19T04:07:50;15.83;;;13.33;;
9767;SDS011;4923;52.520;13.494;2022-08-19T04:10:38;14.77;;;13.37;;
9767;SDS011;4923;52.520;13.494;2022-08-19T04:13:27;20.33;;;12.37;;
9767;SDS011;4923;52.520;13.494;2022-08-19T04:16:13;17.50;;;13.03;;
9767;SDS011;4923;52.520;13.494;2022-08-19T04:19:01;19.10;;;12.90;;
9767;SDS011;4923;52.520;13.494;2022-08-19T04:21:50;15.70;;;13.90;;
9767;SDS011;4923;52.520;13.494;2022-08-19T04:24:38;14.00;;;12.70;;
9767;SDS011;4923;52.520;13.494;2022-08-19T04:27:25;13.17;;;11.87;;
9767;SDS011;4923;52.520;13.494;2022-08-19T04:30:14;13.23;;;12.00;;
9767;SDS011;4923;52.520;13.494;2022-08-19T04:33:02;13.00;;;11.70;;
9767;SDS011;4923;52.520;13.494;2022-08-19T04:35:50;13.10;;;11.80;;
9767;SDS011;4923;52.520;13.494;2022-08-19T04:38:38;12.77;;;11.67;;
9767;SDS011;4923;52.520;13.494;2022-08-19T04:41:25;14.33;;;13.03;;
9767;SDS011;4923;52.520;13.494;2022-08-19T04:44:30;13.17;;;10.70;;
9767;SDS011;4923;52.520;13.494;2022-08-19T04:47:18;14.63;;;13.23;;
9767;SDS011;4923;52.520;13.494;2022-08-19T04:50:06;15.23;;;11.77;;
9767;SDS011;4923;52.520;13.494;2022-08-19T04:52:56;12.53;;;11.53;;
9767;SDS011;4923;52.520;13.494;2022-08-19T04:55:43;16.40;;;12.03;;
9767;SDS011;4923;52.520;13.494;2022-08-19T04:58:30;15.70;;;12.00;;
9767;SDS011;4923;52.520;13.494;2022-08-19T05:01:18;11.77;;;10.87;;
9767;SDS011;4923;52.520;13.494;2022-08-19T05:04:08;14.30;;;11.47;;
9767;SDS011;4923;52.520;13.494;2022-08-19T05:06:55;13.13;;;10.83;;
9767;SDS011;4923;52.520;13.494;2022-08-19T05:09:42;15.93;;;11.70;;
9767;SDS011;4923;52.520;13.494;2022-08-19T05:12:29;13.47;;;11.50;;
9767;SDS011;4923;52.520;13.494;2022-08-19T05:15:16;12.27;;;10.83;;
9767;SDS011;4923;52.520;13.494;2022-08-19T05:18:04;14.10;;;10.80;;
9767;SDS011;4923;52.520;13.494;2022-08-19T05:21:10;11.87;;;10.70;;
9767;SDS011;4923;52.520;13.494;2022-08-19T05:24:19;14.63;;;10.47;;
9767;SDS011;4923;52.520;13.494;2022-08-19T05:27:07;10.80;;;9.90;;
9767;SDS011;4923;52.520;13.494;2022-08-19T05:29:54;9.97;;;9.03;;
9767;SDS011;4923;52.520;13.494;2022-08-19T05:32:41;10.27;;;9.40;;
9767;SDS011;4923;52.520;13.494;2022-08-19T05:35:28;11.37;;;10.37;;
9767;SDS011;4923;52.520;13.494;2022-08-19T05:38:17;11.13;;;10.23;;
9767;SDS011;4923;52.520;13.494;2022-08-19T05:41:06;9.53;;;8.83;;
9767;SDS011;4923;52.520;13.494;2022-08-19T05:43:53;11.90;;;10.80;;
9767;SDS011;4923;52.520;13.494;2022-08-19T05:46:42;12.17;;;10.93;;
9767;SDS011;4923;52.520;13.494;2022-08-19T05:49:32;11.60;;;10.60;;
9767;SDS011;4923;52.520;13.494;2022-08-19T05:52:20;11.40;;;10.33;;
9767;SDS011;4923;52.520;13.494;2022-08-19T05:55:08;11.53;;;10.53;;
9767;SDS011;4923;52.520;13.494;2022-08-19T05:57:55;17.07;;;11.67;;
9767;SDS011;4923;52.520;13.494;2022-08-19T06:00:42;14.83;;;10.30;;
9767;SDS011;4923;52.520;13.494;2022-08-19T06:03:30;19.13;;;10.93;;
9767;SDS011;4923;52.520;13.494;2022-08-19T06:06:18;12.27;;;11.30;;
9767;SDS011;4923;52.520;13.494;2022-08-19T06:09:06;11.73;;;10.80;;
9767;SDS011;4923;52.520;13.494;2022-08-19T06:11:57;10.67;;;9.90;;
9767;SDS011;4923;52.520;13.494;2022-08-19T06:14:46;13.37;;;11.87;;
9767;SDS011;4923;52.520;13.494;2022-08-19T06:17:34;11.60;;;10.60;;
9767;SDS011;4923;52.520;13.494;2022-08-19T06:20:21;12.50;;;11.33;;
9767;SDS011;4923;52.520;13.494;2022-08-19T06:23:08;13.47;;;12.10;;
9767;SDS011;4923;52.520;13.494;2022-08-19T06:25:55;18.00;;;12.60;;
9767;SDS011;4923;52.520;13.494;2022-08-19T06:28:43;14.07;;;11.13;;
9767;SDS011;4923;52.520;13.494;2022-08-19T06:31:32;11.70;;;10.67;;
9767;SDS011;4923;52.520;13.494;2022-08-19T06:34:19;12.97;;;11.97;;
9767;SDS011;4923;52.520;13.494;2022-08-19T06:37:07;13.83;;;12.37;;
9767;SDS011;4923;52.520;13.494;2022-08-19T06:39:54;13.13;;;11.50;;
9767;SDS011;4923;52.520;13.494;2022-08-19T06:42:41;12.13;;;11.13;;
9767;SDS011;4923;52.520;13.494;2022-08-19T06:45:29;12.63;;;11.73;;
9767;SDS011;4923;52.520;13.494;2022-08-19T06:48:16;12.87;;;11.30;;
9767;SDS011;4923;52.520;13.494;2022-08-19T06:51:03;13.63;;;11.10;;
9767;SDS011;4923;52.520;13.494;2022-08-19T06:53:52;12.50;;;11.10;;
9767;SDS011;4923;52.520;13.494;2022-08-19T06:56:40;15.17;;;11.37;;
9767;SDS011;4923;52.520;13.494;2022-08-19T06:59:29;13.47;;;11.23;;
9767;SDS011;4923;52.520;13.494;2022-08-19T07:02:19;20.67;;;12.07;;
9767;SDS011;4923;52.520;13.494;2022-08-19T07:05:06;13.10;;;11.00;;
9767;SDS011;4923;52.520;13.494;2022-08-19T07:07:53;13.67;;;12.27;;
9767;SDS011;4923;52.520;13.494;2022-08-19T07:10:44;13.00;;;11.73;;
9767;SDS011;4923;52.520;13.494;2022-08-19T07:13:33;12.13;;;11.03;;
9767;SDS011;4923;52.520;13.494;2022-08-19T07:16:22;12.83;;;11.73;;
9767;SDS011;4923;52.520;13.494;2022-08-19T07:19:10;12.70;;;11.70;;
9767;SDS011;4923;52.520;13.494;2022-08-19T07:21:57;11.90;;;10.90;;
9767;SDS011;4923;52.520;13.494;2022-08-19T07:24:47;13.70;;;11.60;;
9767;SDS011;4923;52.520;13.494;2022-08-19T07:27:34;13.30;;;12.00;;
9767;SDS011;4923;52.520;13.494;2022-08-19T07:30:21;12.67;;;11.33;;
9767;SDS011;4923;52.520;13.494;2022-08-19T07:33:09;15.00;;;12.30;;
9767;SDS011;4923;52.520;13.494;2022-08-19T07:35:57;14.43;;;12.13;;
9767;SDS011;4923;52.520;13.494;2022-08-19T07:38:45;13.40;;;12.20;;
9767;SDS011;4923;52.520;13.494;2022-08-19T07:41:33;14.47;;;12.97;;
9767;SDS011;4923;52.520;13.494;2022-08-19T07:44:22;14.60;;;13.10;;
9767;SDS011;4923;52.520;13.494;2022-08-19T07:47:09;14.97;;;12.50;;
9767;SDS011;4923;52.520;13.494;2022-08-19T07:49:56;13.27;;;12.00;;
9767;SDS011;4923;52.520;13.494;2022-08-19T07:52:44;24.30;;;13.77;;
9767;SDS011;4923;52.520;13.494;2022-08-19T07:55:31;18.10;;;13.90;;
9767;SDS011;4923;52.520;13.494;2022-08-19T07:58:20;16.17;;;14.57;;
9767;SDS011;4923;52.520;13.494;2022-08-19T08:01:09;17.67;;;14.80;;
9767;SDS011;4923;52.520;13.494;2022-08-19T08:03:57;15.13;;;13.83;;
9767;SDS011;4923;52.520;13.494;2022-08-19T08:07:02;14.70;;;13.30;;
9767;SDS011;4923;52.520;13.494;2022-08-19T08:10:08;15.20;;;13.80;;
9767;SDS011;4923;52.520;13.494;2022-08-19T08:12:55;15.37;;;13.70;;
9767;SDS011;4923;52.520;13.494;2022-08-19T08:15:42;13.97;;;12.67;;
9767;SDS011;4923;52.520;13.494;2022-08-19T08:18:29;15.70;;;12.90;;
9767;SDS011;4923;52.520;13.494;2022-08-19T08:21:16;18.27;;;14.23;;
9767;SDS011;4923;52.520;13.494;2022-08-19T08:24:03;15.43;;;13.83;;
9767;SDS011;4923;52.520;13.494;2022-08-19T08:26:51;15.90;;;13.00;;
9767;SDS011;4923;52.520;13.494;2022-08-19T08:29:38;14.27;;;12.87;;
9767;SDS011;4923;52.520;13.494;2022-08-19T08:32:26;17.80;;;14.77;;
9767;SDS011;4923;52.520;13.494;2022-08-19T08:35:13;20.27;;;13.00;;
9767;SDS011;4923;52.520;13.494;2022-08-19T08:38:02;13.87;;;12.33;;
9767;SDS011;4923;52.520;13.494;2022-08-19T08:40:50;12.93;;;11.90;;
9767;SDS011;4923;52.520;13.494;2022-08-19T08:43:49;13.67;;;12.37;;
9767;SDS011;4923;52.520;13.494;2022-08-19T08:46:39;12.77;;;11.57;;
9767;SDS011;4923;52.520;13.494;2022-08-19T08:49:31;13.30;;;11.93;;
9767;SDS011;4923;52.520;13.494;2022-08-19T08:52:27;15.57;;;14.00;;
9767;SDS011;4923;52.520;13.494;2022-08-19T08:55:17;15.90;;;11.30;;
9767;SDS011;4923;52.520;13.494;2022-08-19T08:58:09;14.07;;;12.50;;
9767;SDS011;4923;52.520;13.494;2022-08-19T09:01:02;17.13;;;13.10;;
9767;SDS011;4923;52.520;13.494;2022-08-19T09:03:49;15.83;;;13.00;;
9767;SDS011;4923;52.520;13.494;2022-08-19T09:06:38;14.60;;;13.10;;
9767;SDS011;4923;52.520;13.494;2022-08-19T09:09:34;14.77;;;12.70;;
9767;SDS011;4923;52.520;13.494;2022-08-19T09:12:25;16.83;;;13.30;;
9767;SDS011;4923;52.520;13.494;2022-08-19T09:15:22;15.33;;;13.93;;
9767;SDS011;4923;52.520;13.494;2022-08-19T09:18:16;18.20;;;13.33;;
9767;SDS011;4923;52.520;13.494;2022-08-19T09:21:04;16.43;;;15.00;;
9767;SDS011;4923;52.520;13.494;2022-08-19T09:23:51;14.27;;;12.93;;
9767;SDS011;4923;52.520;13.494;2022-08-19T09:26:38;14.43;;;13.17;;
9767;SDS011;4923;52.520;13.494;2022-08-19T09:29:25;14.13;;;12.93;;
9767;SDS011;4923;52.520;13.494;2022-08-19T09:32:12;14.10;;;12.87;;
9767;SDS011;4923;52.520;13.494;2022-08-19T09:35:01;15.87;;;13.93;;
9767;SDS011;4923;52.520;13.494;2022-08-19T09:37:48;14.37;;;12.90;;
9767;SDS011;4923;52.520;13.494;2022-08-19T09:40:35;13.63;;;12.47;;
9767;SDS011;4923;52.520;13.494;2022-08-19T09:43:22;16.73;;;14.37;;
9767;SDS011;4923;52.520;13.494;2022-08-19T09:46:11;20.00;;;14.33;;
9767;SDS011;4923;52.520;13.494;2022-08-19T09:48:59;21.03;;;13.50;;
9767;SDS011;4923;52.520;13.494;2022-08-19T09:51:50;14.93;;;12.87;;
9767;SDS011;4923;52.520;13.494;2022-08-19T09:54:39;13.80;;;11.97;;
9767;SDS011;4923;52.520;13.494;2022-08-19T09:57:26;14.13;;;12.63;;
9767;SDS011;4923;52.520;13.494;2022-08-19T10:00:13;22.63;;;13.60;;
9767;SDS011;4923;52.520;13.494;2022-08-19T10:03:00;13.07;;;11.73;;
9767;SDS011;4923;52.520;13.494;2022-08-19T10:05:47;15.97;;;14.30;;
9767;SDS011;4923;52.520;13.494;2022-08-19T10:08:36;12.93;;;11.73;;
9767;SDS011;4923;52.520;13.494;2022-08-19T10:11:25;14.60;;;13.10;;
9767;SDS011;4923;52.520;13.494;2022-08-19T10:14:13;14.50;;;13.17;;
9767;SDS011;4923;52.520;13.494;2022-08-19T10:17:00;11.33;;;10.33;;
9767;SDS011;4923;52.520;13.494;2022-08-19T10:19:48;14.30;;;12.90;;
9767;SDS011;4923;52.520;13.494;2022-08-19T10:22:35;13.37;;;12.23;;
9767;SDS011;4923;52.520;13.494;2022-08-19T10:25:24;13.00;;;11.90;;
9767;SDS011;4923;52.520;13.494;2022-08-19T10:28:12;11.23;;;10.23;;
9767;SDS011;4923;52.520;13.494;2022-08-19T10:31:02;11.83;;;10.70;;
9767;SDS011;4923;52.520;13.494;2022-08-19T10:33:51;14.23;;;11.50;;
9767;SDS011;4923;52.520;13.494;2022-08-19T10:36:46;20.30;;;12.23;;
9767;SDS011;4923;52.520;13.494;2022-08-19T10:39:33;11.27;;;10.37;;
9767;SDS011;4923;52.520;13.494;2022-08-19T10:42:27;14.60;;;11.37;;
9767;SDS011;4923;52.520;13.494;2022-08-19T10:45:16;13.77;;;11.80;;
9767;SDS011;4923;52.520;13.494;2022-08-19T10:48:03;12.50;;;11.40;;
9767;SDS011;4923;52.520;13.494;2022-08-19T10:50:50;12.37;;;11.37;;
9767;SDS011;4923;52.520;13.494;2022-08-19T10:53:54;11.37;;;10.37;;
9767;SDS011;4923;52.520;13.494;2022-08-19T10:56:43;11.67;;;10.63;;
9767;SDS011;4923;52.520;13.494;2022-08-19T10:59:39;12.17;;;10.97;;
9767;SDS011;4923;52.520;13.494;2022-08-19T11:02:26;12.00;;;9.90;;
9767;SDS011;4923;52.520;13.494;2022-08-19T11:05:14;14.10;;;10.80;;
9767;SDS011;4923;52.520;13.494;2022-08-19T11:08:02;14.50;;;10.33;;
9767;SDS011;4923;52.520;13.494;2022-08-19T11:10:52;11.70;;;10.47;;
9767;SDS011;4923;52.520;13.494;2022-08-19T11:13:42;12.80;;;11.50;;
9767;SDS011;4923;52.520;13.494;2022-08-19T11:16:32;13.60;;;11.90;;
9767;SDS011;4923;52.520;13.494;2022-08-19T11:19:19;11.97;;;10.87;;
9767;SDS011;4923;52.520;13.494;2022-08-19T11:22:08;11.70;;;10.80;;
9767;SDS011;4923;52.520;13.494;2022-08-19T11:24:55;13.50;;;12.10;;
9767;SDS011;4923;52.520;13.494;2022-08-19T11:27:42;15.50;;;11.07;;
9767;SDS011;4923;52.520;13.494;2022-08-19T11:30:32;11.90;;;10.80;;
9767;SDS011;4923;52.520;13.494;2022-08-19T11:33:20;14.97;;;12.07;;
9767;SDS011;4923;52.520;13.494;2022-08-19T11:36:07;17.10;;;10.80;;
9767;SDS011;4923;52.520;13.494;2022-08-19T11:38:55;10.97;;;9.87;;
9767;SDS011;4923;52.520;13.494;2022-08-19T11:41:42;11.77;;;10.67;;
9767;SDS011;4923;52.520;13.494;2022-08-19T11:44:29;11.93;;;10.97;;
9767;SDS011;4923;52.520;13.494;2022-08-19T11:47:16;16.33;;;11.53;;
9767;SDS011;4923;52.520;13.494;2022-08-19T11:50:05;10.87;;;9.93;;
9767;SDS011;4923;52.520;13.494;2022-08-19T11:52:53;12.93;;;11.60;;
9767;SDS011;4923;52.520;13.494;2022-08-19T11:55:41;11.50;;;10.40;;
9767;SDS011;4923;52.520;13.494;2022-08-19T11:58:28;10.67;;;9.70;;
9767;SDS011;4923;52.520;13.494;2022-08-19T12:01:16;11.70;;;10.70;;
9767;SDS011;4923;52.520;13.494;2022-08-19T12:04:04;12.90;;;10.40;;
9767;SDS011;4923;52.520;13.494;2022-08-19T12:06:54;11.87;;;10.47;;
9767;SDS011;4923;52.520;13.494;2022-08-19T12:09:41;12.03;;;10.40;;
9767;SDS011;4923;52.520;13.494;2022-08-19T12:12:28;10.27;;;9.27;;
9767;SDS011;4923;52.520;13.494;2022-08-19T12:15:15;12.73;;;11.40;;
9767;SDS011;4923;52.520;13.494;2022-08-19T12:18:03;10.93;;;9.80;;
9767;SDS011;4923;52.520;13.494;2022-08-19T12:20:51;14.73;;;9.60;;
9767;SDS011;4923;52.520;13.494;2022-08-19T12:23:42;10.03;;;9.23;;
9767;SDS011;4923;52.520;13.494;2022-08-19T12:26:30;11.27;;;10.07;;
9767;SDS011;4923;52.520;13.494;2022-08-19T12:29:17;10.20;;;9.20;;
9767;SDS011;4923;52.520;13.494;2022-08-19T12:32:04;12.53;;;8.97;;
9767;SDS011;4923;52.520;13.494;2022-08-19T12:34:51;11.50;;;9.43;;
9767;SDS011;4923;52.520;13.494;2022-08-19T12:37:38;9.93;;;9.13;;
9767;SDS011;4923;52.520;13.494;2022-08-19T12:40:31;8.87;;;8.13;;
9767;SDS011;4923;52.520;13.494;2022-08-19T12:43:18;7.57;;;7.00;;
9767;SDS011;4923;52.520;13.494;2022-08-19T12:46:05;10.93;;;7.87;;
9767;SDS011;4923;52.520;13.494;2022-08-19T12:48:53;9.20;;;8.47;;
9767;SDS011;4923;52.520;13.494;2022-08-19T12:51:40;9.10;;;8.20;;
9767;SDS011;4923;52.520;13.494;2022-08-19T12:54:27;8.57;;;7.50;;
9767;SDS011;4923;52.520;13.494;2022-08-19T12:57:17;8.23;;;7.63;;
9767;SDS011;4923;52.520;13.494;2022-08-19T13:00:05;8.97;;;8.03;;
9767;SDS011;4923;52.520;13.494;2022-08-19T13:02:55;8.00;;;7.40;;
9767;SDS011;4923;52.520;13.494;2022-08-19T13:05:42;7.20;;;6.80;;
9767;SDS011;4923;52.520;13.494;2022-08-19T13:08:29;7.67;;;7.20;;
9767;SDS011;4923;52.520;13.494;2022-08-19T13:11:16;10.50;;;7.50;;
9767;SDS011;4923;52.520;13.494;2022-08-19T13:14:06;8.17;;;7.70;;
9767;SDS011;4923;52.520;13.494;2022-08-19T13:16:53;7.77;;;7.17;;
9767;SDS011;4923;52.520;13.494;2022-08-19T13:19:40;9.23;;;8.23;;
9767;SDS011;4923;52.520;13.494;2022-08-19T13:22:27;8.17;;;7.67;;
9767;SDS011;4923;52.520;13.494;2022-08-19T13:25:14;9.47;;;8.67;;
9767;SDS011;4923;52.520;13.494;2022-08-19T13:28:04;9.20;;;8.40;;
9767;SDS011;4923;52.520;13.494;2022-08-19T13:30:53;10.30;;;8.37;;
9767;SDS011;4923;52.520;13.494;2022-08-19T13:33:57;9.43;;;8.50;;
9767;SDS011;4923;52.520;13.494;2022-08-19T13:36:44;9.30;;;8.60;;
9767;SDS011;4923;52.520;13.494;2022-08-19T13:39:32;9.83;;;8.83;;
9767;SDS011;4923;52.520;13.494;2022-08-19T13:42:20;9.87;;;8.90;;
9767;SDS011;4923;52.520;13.494;2022-08-19T13:45:07;11.37;;;8.77;;
9767;SDS011;4923;52.520;13.494;2022-08-19T13:47:56;9.10;;;8.30;;
9767;SDS011;4923;52.520;13.494;2022-08-19T13:50:44;9.80;;;9.00;;
9767;SDS011;4923;52.520;13.494;2022-08-19T13:53:32;8.90;;;8.17;;
9767;SDS011;4923;52.520;13.494;2022-08-19T13:56:19;9.20;;;8.40;;
9767;SDS011;4923;52.520;13.494;2022-08-19T13:59:06;9.70;;;9.00;;
9767;SDS011;4923;52.520;13.494;2022-08-19T14:01:56;9.80;;;8.87;;
9767;SDS011;4923;52.520;13.494;2022-08-19T14:04:46;9.10;;;8.30;;
9767;SDS011;4923;52.520;13.494;2022-08-19T14:07:32;10.67;;;9.67;;
9767;SDS011;4923;52.520;13.494;2022-08-19T14:10:20;9.20;;;8.40;;
9767;SDS011;4923;52.520;13.494;2022-08-19T14:13:08;10.03;;;9.03;;
9767;SDS011;4923;52.520;13.494;2022-08-19T14:15:55;8.97;;;8.30;;
9767;SDS011;4923;52.520;13.494;2022-08-19T14:18:43;10.03;;;8.97;;
9767;SDS011;4923;52.520;13.494;2022-08-19T14:21:32;9.27;;;8.40;;
9767;SDS011;4923;52.520;13.494;2022-08-19T14:24:21;10.53;;;9.57;;
9767;SDS011;4923;52.520;13.494;2022-08-19T14:27:08;12.50;;;9.23;;
9767;SDS011;4923;52.520;13.494;2022-08-19T14:29:55;8.67;;;8.07;;
9767;SDS011;4923;52.520;13.494;2022-08-19T14:32:42;10.27;;;9.23;;
9767;SDS011;4923;52.520;13.494;2022-08-19T14:35:30;10.17;;;9.37;;
9767;SDS011;4923;52.520;13.494;2022-08-19T14:38:20;10.10;;;9.13;;
9767;SDS011;4923;52.520;13.494;2022-08-19T14:41:08;9.80;;;9.00;;
9767;SDS011;4923;52.520;13.494;2022-08-19T14:43:57;9.80;;;9.10;;
9767;SDS011;4923;52.520;13.494;2022-08-19T14:46:45;10.33;;;8.90;;
9767;SDS011;4923;52.520;13.494;2022-08-19T14:49:32;8.90;;;8.10;;
9767;SDS011;4923;52.520;13.494;2022-08-19T14:52:20;14.77;;;8.27;;
9767;SDS011;4923;52.520;13.494;2022-08-19T14:55:08;9.00;;;8.30;;
9767;SDS011;4923;52.520;13.494;2022-08-19T14:57:56;8.90;;;8.30;;
9767;SDS011;4923;52.520;13.494;2022-08-19T15:00:43;9.50;;;8.60;;
9767;SDS011;4923;52.520;13.494;2022-08-19T15:03:30;8.53;;;7.93;;
9767;SDS011;4923;52.520;13.494;2022-08-19T15:06:18;9.60;;;8.70;;
9767;SDS011;4923;52.520;13.494;2022-08-19T15:09:05;9.33;;;8.50;;
9767;SDS011;4923;52.520;13.494;2022-08-19T15:11:53;8.97;;;8.27;;
9767;SDS011;4923;52.520;13.494;2022-08-19T15:14:40;9.60;;;8.70;;
9767;SDS011;4923;52.520;13.494;2022-08-19T15:17:35;8.43;;;7.83;;
9767;SDS011;4923;52.520;13.494;2022-08-19T15:20:22;8.33;;;7.70;;
9767;SDS011;4923;52.520;13.494;2022-08-19T15:23:09;8.93;;;8.23;;
9767;SDS011;4923;52.520;13.494;2022-08-19T15:25:56;8.50;;;7.93;;
9767;SDS011;4923;52.520;13.494;2022-08-19T15:28:45;8.30;;;7.70;;
9767;SDS011;4923;52.520;13.494;2022-08-19T15:31:32;7.60;;;7.07;;
9767;SDS011;4923;52.520;13.494;2022-08-19T15:34:20;8.17;;;7.40;;
9767;SDS011;4923;52.520;13.494;2022-08-19T15:37:07;8.00;;;7.40;;
9767;SDS011;4923;52.520;13.494;2022-08-19T15:39:54;7.50;;;7.00;;
9767;SDS011;4923;52.520;13.494;2022-08-19T15:42:41;7.60;;;6.90;;
9767;SDS011;4923;52.520;13.494;2022-08-19T15:45:30;7.63;;;6.93;;
9767;SDS011;4923;52.520;13.494;2022-08-19T15:48:17;9.23;;;7.20;;
9767;SDS011;4923;52.520;13.494;2022-08-19T15:51:04;10.10;;;8.00;;
9767;SDS011;4923;52.520;13.494;2022-08-19T15:53:51;9.40;;;8.23;;
9767;SDS011;4923;52.520;13.494;2022-08-19T15:56:39;8.30;;;7.80;;
9767;SDS011;4923;52.520;13.494;2022-08-19T15:59:44;8.50;;;7.80;;
9767;SDS011;4923;52.520;13.494;2022-08-19T16:02:50;8.60;;;7.73;;
9767;SDS011;4923;52.520;13.494;2022-08-19T16:05:54;15.27;;;8.43;;
9767;SDS011;4923;52.520;13.494;2022-08-19T16:08:59;8.90;;;8.20;;
9767;SDS011;4923;52.520;13.494;2022-08-19T16:11:48;9.13;;;8.27;;
9767;SDS011;4923;52.520;13.494;2022-08-19T16:14:35;8.43;;;7.60;;
9767;SDS011;4923;52.520;13.494;2022-08-19T16:17:23;10.40;;;9.33;;
9767;SDS011;4923;52.520;13.494;2022-08-19T16:20:12;9.17;;;7.70;;
9767;SDS011;4923;52.520;13.494;2022-08-19T16:25:44;8.60;;;7.80;;
9767;SDS011;4923;52.520;13.494;2022-08-19T16:28:31;9.10;;;8.27;;
9767;SDS011;4923;52.520;13.494;2022-08-19T16:31:18;9.50;;;8.53;;
9767;SDS011;4923;52.520;13.494;2022-08-19T16:34:05;9.00;;;8.40;;
9767;SDS011;4923;52.520;13.494;2022-08-19T16:36:53;12.17;;;8.40;;
9767;SDS011;4923;52.520;13.494;2022-08-19T16:39:40;14.10;;;9.43;;
9767;SDS011;4923;52.520;13.494;2022-08-19T16:42:27;10.20;;;9.07;;
9767;SDS011;4923;52.520;13.494;2022-08-19T16:45:14;12.33;;;9.53;;
9767;SDS011;4923;52.520;13.494;2022-08-19T16:48:05;10.00;;;9.10;;
9767;SDS011;4923;52.520;13.494;2022-08-19T16:50:52;19.43;;;10.40;;